Time;durP1;ratioP1;P1;durP2;ratioP2;P2;SDS_P1;SDS_P2;PMS_P1;PMS_P2;Temp;Humidity;BMP_temperature;BMP_pressure;BME280_temperature;BME280_humidity;BME280_pressure;Samples;Min_cycle;Max_cycle;Signal;HPM_P1;HPM_P2
2021/11/14 00:01:41;;;;;;;23.25;15.07;;;11.00;99.90;;;;;;5031288;28;20021;-73
2021/11/14 00:04:09;;;;;;;24.63;15.32;;;11.00;99.90;;;;;;5031264;28;20064;-74
2021/11/14 00:06:35;;;;;;;20.20;14.98;;;10.90;99.90;;;;;;5032074;28;20094;-73
2021/11/14 00:09:01;;;;;;;26.55;15.48;;;10.90;99.90;;;;;;5031271;28;20025;-73
2021/11/14 00:11:27;;;;;;;19.10;13.25;;;10.90;99.90;;;;;;5030603;28;20038;-73
2021/11/14 00:13:53;;;;;;;25.08;15.75;;;11.00;99.90;;;;;;5031784;28;20029;-75
2021/11/14 00:16:20;;;;;;;21.38;15.10;;;11.00;99.90;;;;;;5033155;28;20014;-75
2021/11/14 00:18:47;;;;;;;25.25;15.70;;;10.90;99.90;;;;;;5020007;28;20022;-74
2021/11/14 00:21:14;;;;;;;23.17;16.52;;;10.90;99.90;;;;;;5032441;28;20036;-74
2021/11/14 00:23:40;;;;;;;26.23;17.52;;;10.90;99.90;;;;;;5032076;28;20120;-74
2021/11/14 00:26:06;;;;;;;34.53;20.75;;;10.90;99.90;;;;;;5031546;28;20554;-74
2021/11/14 00:28:32;;;;;;;39.22;22.88;;;10.90;99.90;;;;;;5030987;28;20508;-73
2021/11/14 00:30:58;;;;;;;36.15;22.35;;;10.90;99.90;;;;;;5031429;28;20057;-73
2021/11/14 00:33:23;;;;;;;29.42;19.50;;;10.90;99.90;;;;;;5031600;28;20049;-73
2021/11/14 00:35:52;;;;;;;32.90;19.30;;;10.90;99.90;;;;;;5031355;28;20101;-73
2021/11/14 00:38:22;;;;;;;30.15;17.90;;;10.80;99.90;;;;;;5031738;28;20124;-72
2021/11/14 00:40:48;;;;;;;;;;;10.80;99.90;;;;;;5032503;28;20052;-73
2021/11/14 00:43:14;;;;;;;24.88;17.42;;;10.90;99.90;;;;;;5034779;28;19959;-73
2021/11/14 00:45:44;;;;;;;28.80;18.20;;;10.80;99.90;;;;;;5035313;28;20116;-73
2021/11/14 00:48:13;;;;;;;27.02;17.50;;;10.80;99.90;;;;;;5034994;28;20108;-73
2021/11/14 00:50:43;;;;;;;25.60;17.65;;;10.80;99.90;;;;;;5034710;28;20486;-75
2021/11/14 00:53:10;;;;;;;26.10;17.40;;;10.80;99.90;;;;;;5035034;28;20120;-73
2021/11/14 00:55:36;;;;;;;27.42;17.40;;;10.90;99.90;;;;;;5035243;28;20021;-73
2021/11/14 00:58:03;;;;;;;24.48;17.85;;;10.80;99.90;;;;;;5034229;28;20024;-74
2021/11/14 01:00:30;;;;;;;23.30;17.15;;;10.80;99.90;;;;;;5035429;28;20022;-73
2021/11/14 01:02:56;;;;;;;25.15;15.63;;;10.80;99.90;;;;;;5036619;28;20100;-74
2021/11/14 01:05:23;;;;;;;23.17;14.85;;;10.80;99.90;;;;;;5034870;28;20041;-72
2021/11/14 01:07:49;;;;;;;28.17;16.73;;;10.80;99.90;;;;;;5035145;28;20021;-73
2021/11/14 01:10:19;;;;;;;20.48;14.75;;;10.70;99.90;;;;;;5033713;28;20078;-73
2021/11/14 01:12:45;;;;;;;25.13;18.33;;;10.70;99.90;;;;;;5034826;28;20049;-73
2021/11/14 01:15:13;;;;;;;35.38;19.95;;;10.70;99.90;;;;;;5034721;28;20021;-73
2021/11/14 01:17:39;;;;;;;24.73;17.02;;;10.70;99.90;;;;;;5035891;28;20081;-73
2021/11/14 01:20:15;;;;;;;29.83;19.60;;;10.70;99.90;;;;;;5034555;28;20023;-73
2021/11/14 01:22:41;;;;;;;26.92;18.50;;;10.70;99.90;;;;;;5034820;28;20036;-73
2021/11/14 01:25:09;;;;;;;34.83;18.90;;;10.60;99.90;;;;;;5033646;28;20057;-73
2021/11/14 01:27:41;;;;;;;31.92;20.02;;;10.60;99.90;;;;;;5034391;28;20485;-73
2021/11/14 01:30:11;;;;;;;33.15;19.85;;;10.60;99.90;;;;;;5034298;28;20040;-74
2021/11/14 01:32:38;;;;;;;27.17;18.33;;;10.70;99.90;;;;;;5034145;28;20030;-73
2021/11/14 01:35:06;;;;;;;29.60;18.30;;;10.70;99.90;;;;;;5034096;28;20026;-74
2021/11/14 01:37:32;;;;;;;30.83;19.65;;;10.80;99.90;;;;;;5034884;28;20033;-73
2021/11/14 01:39:57;;;;;;;28.02;18.77;;;10.70;99.90;;;;;;5033457;28;20488;-73
2021/11/14 01:42:23;;;;;;;35.10;21.05;;;10.70;99.90;;;;;;5034143;28;20029;-74
2021/11/14 01:44:49;;;;;;;33.83;22.25;;;10.70;99.90;;;;;;5027728;28;20051;-72
2021/11/14 01:47:14;;;;;;;35.67;21.17;;;10.80;99.90;;;;;;5033438;28;20030;-73
2021/11/14 01:49:41;;;;;;;35.67;22.13;;;10.70;99.90;;;;;;5033989;28;20029;-73
2021/11/14 01:52:20;;;;;;;33.25;22.33;;;10.70;99.90;;;;;;5033535;28;20076;-73
2021/11/14 01:54:46;;;;;;;31.27;19.88;;;10.70;99.90;;;;;;5034448;28;20409;-73
2021/11/14 01:57:11;;;;;;;31.52;20.95;;;10.60;99.90;;;;;;5033576;28;20037;-73
2021/11/14 01:59:37;;;;;;;39.05;22.25;;;10.70;99.90;;;;;;5033550;28;20029;-73
2021/11/14 02:02:03;;;;;;;37.95;23.25;;;10.70;99.90;;;;;;5033804;28;20029;-73
2021/11/14 02:04:29;;;;;;;33.80;21.58;;;10.70;99.90;;;;;;5034013;28;20493;-73
2021/11/14 02:06:55;;;;;;;33.60;21.60;;;10.70;99.90;;;;;;5033147;28;20096;-74
2021/11/14 02:09:21;;;;;;;36.28;23.15;;;10.70;99.90;;;;;;5034262;28;20147;-73
2021/11/14 02:11:46;;;;;;;38.55;20.73;;;10.60;99.90;;;;;;5034072;28;20029;-73
2021/11/14 02:14:12;;;;;;;36.28;22.45;;;10.60;99.90;;;;;;5032926;28;20585;-73
2021/11/14 02:16:38;;;;;;;31.60;21.73;;;10.60;99.90;;;;;;5034208;28;20057;-73
2021/11/14 02:19:06;;;;;;;36.75;21.38;;;10.60;99.90;;;;;;5033441;28;20076;-73
2021/11/14 02:21:32;;;;;;;31.52;20.13;;;10.60;99.90;;;;;;5033101;28;20541;-75
2021/11/14 02:24:01;;;;;;;32.60;20.60;;;10.60;99.90;;;;;;5033673;28;20038;-74
2021/11/14 02:26:26;;;;;;;27.88;19.88;;;10.70;99.90;;;;;;5033953;28;20029;-74
2021/11/14 02:28:53;;;;;;;36.50;21.15;;;10.60;99.90;;;;;;5032963;28;20512;-73
2021/11/14 02:31:21;;;;;;;33.75;20.83;;;10.60;99.90;;;;;;5033324;28;20026;-74
2021/11/14 02:33:47;;;;;;;30.35;20.60;;;10.60;99.90;;;;;;5033972;28;20022;-73
2021/11/14 02:36:12;;;;;;;32.58;20.23;;;10.60;99.90;;;;;;5032631;28;20025;-73
2021/11/14 02:38:39;;;;;;;32.03;20.80;;;10.60;99.90;;;;;;5033547;28;20378;-75
2021/11/14 02:41:05;;;;;;;35.90;21.50;;;10.60;99.90;;;;;;5034085;28;20113;-74
2021/11/14 02:43:32;;;;;;;32.88;20.65;;;10.60;99.90;;;;;;5033282;28;20040;-73
2021/11/14 02:45:57;;;;;;;32.95;20.77;;;10.60;99.90;;;;;;5033124;28;20148;-74
2021/11/14 02:48:23;;;;;;;41.55;22.48;;;10.60;99.90;;;;;;5032838;28;20112;-73
2021/11/14 02:50:52;;;;;;;35.33;21.00;;;10.60;99.90;;;;;;5032054;28;20046;-73
2021/11/14 02:53:18;;;;;;;27.50;18.88;;;10.60;99.90;;;;;;5032961;28;20061;-74
2021/11/14 02:55:44;;;;;;;33.13;20.55;;;10.50;99.90;;;;;;5032428;28;20032;-73
2021/11/14 02:58:10;;;;;;;31.95;19.55;;;10.50;99.90;;;;;;5032566;28;20045;-73
2021/11/14 03:01:07;;;;;;;28.08;19.63;;;10.50;99.90;;;;;;5032567;28;20025;-73
2021/11/14 03:03:33;;;;;;;29.25;19.75;;;10.60;99.90;;;;;;5031731;28;20033;-74
2021/11/14 03:05:58;;;;;;;31.67;18.65;;;10.60;99.90;;;;;;5031872;28;20029;-73
2021/11/14 03:08:24;;;;;;;31.55;18.58;;;10.60;99.90;;;;;;5032625;28;20025;-73
2021/11/14 03:10:50;;;;;;;31.40;19.70;;;10.60;99.90;;;;;;5031671;28;20049;-73
2021/11/14 03:13:19;;;;;;;27.60;19.73;;;10.60;99.90;;;;;;5032194;28;20025;-73
2021/11/14 03:15:49;;;;;;;32.70;21.70;;;10.60;99.90;;;;;;5032210;28;20104;-74
2021/11/14 03:18:15;;;;;;;26.48;19.30;;;10.50;99.90;;;;;;5031498;28;20482;-73
2021/11/14 03:20:43;;;;;;;33.03;19.83;;;10.50;99.90;;;;;;5032218;28;20031;-74
2021/11/14 03:23:11;;;;;;;35.95;22.02;;;10.50;99.90;;;;;;5032035;28;20083;-74
2021/11/14 03:25:38;;;;;;;34.03;22.17;;;10.60;99.90;;;;;;5031462;28;20026;-74
2021/11/14 03:28:05;;;;;;;32.00;20.65;;;10.50;99.90;;;;;;5031781;28;20017;-73
2021/11/14 03:30:33;;;;;;;31.92;19.30;;;10.50;99.90;;;;;;5032241;28;20477;-72
2021/11/14 03:33:07;;;;;;;30.73;19.73;;;10.60;99.90;;;;;;5031370;28;20032;-72
2021/11/14 03:35:51;;;;;;;35.15;20.35;;;10.60;99.90;;;;;;5032351;28;20029;-72
2021/11/14 03:38:20;;;;;;;33.38;21.45;;;10.50;99.90;;;;;;5031329;28;20100;-72
2021/11/14 03:40:46;;;;;;;36.05;20.85;;;10.50;99.90;;;;;;5032382;28;20064;-73
2021/11/14 03:43:14;;;;;;;32.65;20.75;;;10.50;99.90;;;;;;5032004;28;20026;-73
2021/11/14 03:45:41;;;;;;;33.03;19.85;;;10.50;99.90;;;;;;5031606;28;20029;-73
2021/11/14 03:48:07;;;;;;;34.50;21.33;;;10.50;99.90;;;;;;5031726;28;20036;-72
2021/11/14 03:50:34;;;;;;;35.33;22.20;;;10.60;99.90;;;;;;5031755;28;20045;-72
2021/11/14 03:53:00;;;;;;;30.77;19.17;;;10.50;99.90;;;;;;5030959;28;20049;-73
2021/11/14 03:55:26;;;;;;;31.60;20.40;;;10.60;99.90;;;;;;5031851;28;20087;-73
2021/11/14 03:57:52;;;;;;;31.80;18.65;;;10.50;99.90;;;;;;5032238;28;20351;-73
2021/11/14 04:00:35;;;;;;;29.80;19.48;;;10.50;99.90;;;;;;5031137;28;20147;-73
2021/11/14 04:03:00;;;;;;;32.60;20.15;;;10.50;99.90;;;;;;5032034;28;20416;-73
2021/11/14 04:05:34;;;;;;;30.08;20.20;;;10.50;99.90;;;;;;5031984;28;20109;-72
2021/11/14 04:08:00;;;;;;;30.42;19.85;;;10.50;99.90;;;;;;5031104;28;20021;-73
2021/11/14 04:10:27;;;;;;;32.03;20.08;;;10.40;99.90;;;;;;5032105;28;20079;-73
2021/11/14 04:12:53;;;;;;;31.25;21.08;;;10.50;99.90;;;;;;5032396;28;20025;-74
2021/11/14 04:15:19;;;;;;;36.65;21.52;;;10.50;99.90;;;;;;5033434;28;20033;-73
2021/11/14 04:17:45;;;;;;;40.55;22.02;;;10.40;99.90;;;;;;5035774;28;20024;-73
2021/11/14 04:20:13;;;;;;;33.63;21.27;;;10.50;99.90;;;;;;5035012;28;20350;-74
2021/11/14 04:22:39;;;;;;;29.67;21.35;;;10.50;99.90;;;;;;5035633;28;20026;-74
2021/11/14 04:25:07;;;;;;;39.33;21.63;;;10.50;99.90;;;;;;5035594;28;20037;-73
2021/11/14 04:27:32;;;;;;;31.45;19.83;;;10.50;99.90;;;;;;5034990;28;20032;-72
2021/11/14 04:29:58;;;;;;;34.65;21.17;;;10.50;99.90;;;;;;5035447;28;20092;-73
2021/11/14 04:32:24;;;;;;;38.00;22.88;;;10.50;99.90;;;;;;5035532;28;20093;-73
2021/11/14 04:34:49;;;;;;;31.30;21.17;;;10.50;99.90;;;;;;5034656;28;20029;-73
2021/11/14 04:37:15;;;;;;;36.05;22.02;;;10.50;99.90;;;;;;5035470;28;20033;-72
2021/11/14 04:39:41;;;;;;;33.45;21.08;;;10.50;99.90;;;;;;5035639;28;20028;-73
2021/11/14 04:42:08;;;;;;;34.80;20.95;;;10.40;99.90;;;;;;5034396;28;20036;-73
2021/11/14 04:44:35;;;;;;;35.83;20.98;;;10.50;99.90;;;;;;5035349;28;20477;-72
2021/11/14 04:47:01;;;;;;;31.80;20.15;;;10.50;99.90;;;;;;5035688;28;20049;-73
2021/11/14 04:49:26;;;;;;;32.53;20.23;;;10.50;99.90;;;;;;5034894;28;20061;-73
2021/11/14 04:51:52;;;;;;;32.78;20.73;;;10.40;99.90;;;;;;5035005;28;20446;-73
2021/11/14 04:54:18;;;;;;;36.92;21.40;;;10.40;99.90;;;;;;5035579;28;20029;-72
2021/11/14 04:56:45;;;;;;;36.45;21.10;;;10.40;99.90;;;;;;5034886;28;20026;-72
2021/11/14 04:59:11;;;;;;;35.83;21.58;;;10.40;99.90;;;;;;5034940;28;20412;-72
2021/11/14 05:01:37;;;;;;;29.42;20.08;;;10.40;99.90;;;;;;5034977;28;20078;-73
2021/11/14 05:04:02;;;;;;;36.13;20.25;;;10.30;99.90;;;;;;5034271;28;20053;-73
2021/11/14 05:06:28;;;;;;;31.52;19.50;;;10.40;99.90;;;;;;5035517;28;20025;-73
2021/11/14 05:08:53;;;;;;;33.92;20.73;;;10.40;99.90;;;;;;5035055;28;20134;-73
2021/11/14 05:11:19;;;;;;;35.58;20.67;;;10.40;99.90;;;;;;5034430;28;20025;-73
2021/11/14 05:13:45;;;;;;;32.08;19.83;;;10.40;99.90;;;;;;5035055;28;20025;-74
2021/11/14 05:16:11;;;;;;;37.03;20.65;;;10.30;99.90;;;;;;5034361;28;20106;-73
2021/11/14 05:18:36;;;;;;;30.33;18.92;;;10.30;99.90;;;;;;5034189;28;20025;-73
2021/11/14 05:21:02;;;;;;;34.03;18.65;;;10.30;99.90;;;;;;5034486;28;20025;-73
2021/11/14 05:23:31;;;;;;;31.08;20.15;;;10.30;99.90;;;;;;5034091;28;20489;-74
2021/11/14 05:25:57;;;;;;;33.58;20.40;;;11.20;99.90;;;;;;5034417;28;20030;-74
2021/11/14 05:28:22;;;;;;;32.22;18.65;;;10.30;99.90;;;;;;5034013;28;20022;-73
2021/11/14 05:30:48;;;;;;;32.72;17.90;;;10.30;99.90;;;;;;5034265;28;20017;-72
2021/11/14 05:33:15;;;;;;;29.67;18.60;;;10.30;99.90;;;;;;5034104;28;20080;-73
2021/11/14 05:35:41;;;;;;;29.40;18.65;;;10.30;99.90;;;;;;5034043;28;20029;-72
2021/11/14 05:38:07;;;;;;;32.33;18.48;;;10.30;99.90;;;;;;5033072;28;20022;-73
2021/11/14 05:40:33;;;;;;;30.02;18.65;;;10.30;99.90;;;;;;5034423;28;20113;-73
2021/11/14 05:42:59;;;;;;;32.35;19.13;;;10.30;99.90;;;;;;5033749;28;20397;-73
2021/11/14 05:45:25;;;;;;;34.97;19.15;;;10.30;99.90;;;;;;5033618;28;20128;-73
2021/11/14 05:47:51;;;;;;;38.72;20.08;;;10.30;99.90;;;;;;5033834;28;20030;-72
2021/11/14 05:50:18;;;;;;;37.17;19.85;;;10.30;99.90;;;;;;5033605;28;20103;-72
2021/11/14 05:52:43;;;;;;;36.60;19.85;;;10.30;99.90;;;;;;5033459;28;20461;-73
2021/11/14 05:55:10;;;;;;;40.72;20.90;;;10.30;99.90;;;;;;5033678;28;20074;-74
2021/11/14 05:57:48;;;;;;;31.40;19.10;;;10.20;99.90;;;;;;5033992;28;20025;-74
2021/11/14 06:00:26;;;;;;;36.55;19.75;;;10.20;99.90;;;;;;5032756;28;20160;-75
2021/11/14 06:02:56;;;;;;;35.63;19.38;;;10.30;99.90;;;;;;5034110;28;20083;-73
2021/11/14 06:05:24;;;;;;;35.45;19.73;;;10.20;99.90;;;;;;5033707;28;20102;-73
2021/11/14 06:07:50;;;;;;;35.20;21.40;;;10.30;99.90;;;;;;5033248;28;20105;-73
2021/11/14 06:10:16;;;;;;;42.55;20.80;;;10.20;99.90;;;;;;5033560;28;20159;-73
2021/11/14 06:12:45;;;;;;;40.20;21.25;;;10.20;99.90;;;;;;5033576;28;20021;-73
2021/11/14 06:15:13;;;;;;;41.53;21.38;;;10.20;99.90;;;;;;5033373;28;20377;-73
2021/11/14 06:17:38;;;;;;;38.97;21.67;;;10.20;99.90;;;;;;5033339;28;20390;-75
2021/11/14 06:20:06;;;;;;;37.13;20.77;;;10.30;99.90;;;;;;5033079;28;20024;-74
2021/11/14 06:22:31;;;;;;;37.15;20.42;;;10.20;99.90;;;;;;5033600;28;20033;-74
2021/11/14 06:24:58;;;;;;;35.95;20.08;;;10.20;99.90;;;;;;5033507;28;20401;-74
2021/11/14 06:27:24;;;;;;;44.17;21.35;;;10.20;99.90;;;;;;5033099;28;20087;-73
2021/11/14 06:29:49;;;;;;;38.42;21.25;;;10.20;99.90;;;;;;5033564;28;20029;-73
2021/11/14 06:32:15;;;;;;;46.08;21.92;;;10.20;99.90;;;;;;5031877;28;20021;-73
2021/11/14 06:34:41;;;;;;;45.45;22.83;;;10.20;99.90;;;;;;5032578;28;20044;-73
2021/11/14 06:37:07;;;;;;;41.80;21.58;;;10.10;99.90;;;;;;5033037;28;20052;-73
2021/11/14 06:39:33;;;;;;;46.03;21.42;;;10.10;99.90;;;;;;5033493;28;20068;-74
2021/11/14 06:41:58;;;;;;;40.40;21.10;;;10.10;99.90;;;;;;5029813;28;20418;-73
2021/11/14 06:44:24;;;;;;;40.22;20.60;;;10.10;99.90;;;;;;5015789;28;20124;-73
2021/11/14 06:46:49;;;;;;;43.58;22.50;;;10.00;99.90;;;;;;5032371;28;20009;-73
2021/11/14 06:49:16;;;;;;;36.60;21.65;;;10.10;99.90;;;;;;5031760;28;20083;-72
2021/11/14 06:51:41;;;;;;;40.75;21.50;;;10.00;99.90;;;;;;5032739;28;20053;-73
2021/11/14 06:54:07;;;;;;;42.95;22.27;;;10.10;99.90;;;;;;5032576;28;20027;-73
2021/11/14 06:56:33;;;;;;;43.45;21.35;;;10.00;99.90;;;;;;5032295;28;20026;-74
2021/11/14 06:58:58;;;;;;;43.83;21.80;;;10.00;99.90;;;;;;5034577;28;20079;-71
2021/11/14 07:01:24;;;;;;;48.70;23.02;;;10.00;99.90;;;;;;5033032;28;20109;-73
2021/11/14 07:03:50;;;;;;;40.72;22.17;;;10.10;99.90;;;;;;5032002;28;20037;-73
2021/11/14 07:06:15;;;;;;;43.17;23.30;;;10.10;99.90;;;;;;5032768;28;20033;-74
2021/11/14 07:08:41;;;;;;;39.70;21.67;;;10.10;99.90;;;;;;5032758;28;20091;-74
2021/11/14 07:11:06;;;;;;;42.55;22.17;;;10.10;99.90;;;;;;5031659;28;20070;-74
2021/11/14 07:13:32;;;;;;;43.17;22.08;;;10.00;99.90;;;;;;5019510;28;20492;-73
2021/11/14 07:15:58;;;;;;;41.17;22.48;;;10.00;99.90;;;;;;5029519;28;20033;-74
2021/11/14 07:18:23;;;;;;;45.50;24.02;;;10.10;99.90;;;;;;5032534;28;20030;-73
2021/11/14 07:20:50;;;;;;;52.95;24.95;;;10.10;99.90;;;;;;5032441;28;20033;-73
2021/11/14 07:23:15;;;;;;;48.72;24.08;;;10.10;99.90;;;;;;5031729;28;20477;-73
2021/11/14 07:25:41;;;;;;;46.83;22.98;;;10.00;99.90;;;;;;5033012;28;20041;-74
2021/11/14 07:28:06;;;;;;;51.15;25.33;;;10.10;99.90;;;;;;5032600;28;20067;-74
2021/11/14 07:30:33;;;;;;;51.95;24.73;;;10.10;99.90;;;;;;5033300;28;20033;-74
2021/11/14 07:32:59;;;;;;;54.20;25.25;;;10.10;99.90;;;;;;5032853;28;20017;-74
2021/11/14 07:35:26;;;;;;;45.67;24.20;;;10.10;99.90;;;;;;5032615;28;20022;-74
2021/11/14 07:37:52;;;;;;;53.75;24.50;;;10.10;99.90;;;;;;5031886;28;20035;-74
2021/11/14 07:40:21;;;;;;;46.35;24.40;;;10.10;99.90;;;;;;5032004;28;20031;-73
2021/11/14 07:42:49;;;;;;;53.40;26.02;;;10.10;99.90;;;;;;5032258;28;20034;-74
2021/11/14 07:45:16;;;;;;;48.45;24.77;;;10.10;99.90;;;;;;5031147;28;20375;-74
2021/11/14 07:47:43;;;;;;;54.22;25.70;;;10.20;99.90;;;;;;5032289;28;20456;-74
2021/11/14 07:50:10;;;;;;;50.70;24.58;;;10.10;99.90;;;;;;5031340;28;20489;-74
2021/11/14 07:52:35;;;;;;;59.13;25.95;;;10.20;99.90;;;;;;5031932;28;20040;-73
2021/11/14 07:55:01;;;;;;;52.00;24.20;;;10.20;99.90;;;;;;5032463;28;20025;-74
2021/11/14 07:57:27;;;;;;;52.75;24.88;;;10.20;99.90;;;;;;5032727;28;20062;-74
2021/11/14 07:59:52;;;;;;;55.47;25.65;;;10.20;99.90;;;;;;5031883;28;20167;-74
2021/11/14 08:02:18;;;;;;;53.75;25.15;;;10.30;99.90;;;;;;5031717;28;20370;-75
2021/11/14 08:04:44;;;;;;;57.10;25.73;;;10.40;99.90;;;;;;5032271;28;20080;-73
2021/11/14 08:07:09;;;;;;;63.67;27.48;;;10.30;99.90;;;;;;5030978;28;20108;-74
2021/11/14 08:09:36;;;;;;;63.72;25.38;;;10.30;99.90;;;;;;5032103;28;20036;-75
2021/11/14 08:12:02;;;;;;;59.65;27.05;;;10.30;99.90;;;;;;5017635;28;20033;-74
2021/11/14 08:14:28;;;;;;;65.20;27.42;;;10.30;99.90;;;;;;5017832;28;20522;-75
2021/11/14 08:16:54;;;;;;;60.88;25.95;;;10.30;99.90;;;;;;5014243;28;20033;-74
2021/11/14 08:19:19;;;;;;;60.40;25.17;;;10.40;99.90;;;;;;5020575;28;20100;-74
2021/11/14 08:21:45;;;;;;;60.38;25.60;;;10.40;99.90;;;;;;5015661;28;20034;-75
2021/11/14 08:24:11;;;;;;;63.63;26.60;;;10.40;99.90;;;;;;5019825;28;20029;-76
2021/11/14 08:26:36;;;;;;;69.75;26.95;;;10.50;99.90;;;;;;5017624;28;20103;-75
2021/11/14 08:29:02;;;;;;;59.80;27.60;;;10.50;99.90;;;;;;5016774;28;20037;-76
2021/11/14 08:31:28;;;;;;;63.97;26.40;;;10.50;99.90;;;;;;5018849;28;20053;-75
2021/11/14 08:33:54;;;;;;;60.60;25.73;;;10.50;99.90;;;;;;5021198;28;20107;-75
2021/11/14 08:36:19;;;;;;;59.53;25.10;;;10.60;99.90;;;;;;5019102;28;20025;-75
2021/11/14 08:38:46;;;;;;;62.00;25.73;;;10.60;99.90;;;;;;5011962;28;20442;-75
2021/11/14 08:41:12;;;;;;;62.20;25.50;;;10.60;99.90;;;;;;5022579;28;20018;-76
2021/11/14 08:43:39;;;;;;;57.88;25.33;;;10.70;99.90;;;;;;5012842;28;20049;-77
2021/11/14 08:46:06;;;;;;;60.13;26.52;;;10.70;99.90;;;;;;5025013;28;20513;-76
2021/11/14 08:48:32;;;;;;;59.72;26.17;;;10.70;99.90;;;;;;5030857;28;20464;-76
2021/11/14 08:51:00;;;;;;;63.13;26.98;;;10.70;99.90;;;;;;5031686;28;20129;-76
2021/11/14 08:53:26;;;;;;;54.90;24.95;;;10.80;99.90;;;;;;5031684;28;20481;-76
2021/11/14 08:55:56;;;;;;;54.50;25.25;;;10.80;99.90;;;;;;5031820;28;20108;-77
2021/11/14 08:58:23;;;;;;;53.72;23.45;;;10.90;99.90;;;;;;5032774;28;20497;-76
2021/11/14 09:00:49;;;;;;;57.60;25.02;;;10.90;99.90;;;;;;5032177;28;20045;-76
2021/11/14 09:03:15;;;;;;;54.67;26.75;;;10.90;99.90;;;;;;5032798;28;20029;-76
2021/11/14 09:05:41;;;;;;;53.83;24.50;;;10.90;99.90;;;;;;5035305;28;20474;-77
2021/11/14 09:08:07;;;;;;;61.95;25.67;;;10.90;99.90;;;;;;5034969;28;20025;-76
2021/11/14 09:10:35;;;;;;;53.05;24.80;;;11.00;99.90;;;;;;5018883;28;20033;-77
2021/11/14 09:13:01;;;;;;;51.90;24.30;;;11.00;99.90;;;;;;5017493;28;20022;-76
2021/11/14 09:15:29;;;;;;;51.38;24.83;;;11.00;99.90;;;;;;5026932;28;20052;-76
2021/11/14 09:17:58;;;;;;;51.17;25.17;;;11.00;99.90;;;;;;5039691;28;20099;-76
2021/11/14 09:20:24;;;;;;;57.50;25.17;;;11.10;99.90;;;;;;5035134;28;20060;-76
2021/11/14 09:22:50;;;;;;;50.88;23.83;;;11.10;99.90;;;;;;5033711;28;20083;-75
2021/11/14 09:25:15;;;;;;;55.03;25.85;;;11.10;99.90;;;;;;5028488;28;20041;-76
2021/11/14 09:27:41;;;;;;;53.25;26.02;;;11.20;99.90;;;;;;5034670;28;20025;-76
2021/11/14 09:30:08;;;;;;;51.45;25.80;;;11.20;99.90;;;;;;5033799;28;20052;-77
2021/11/14 09:32:37;;;;;;;53.63;25.48;;;11.20;99.90;;;;;;5034400;28;20462;-76
2021/11/14 09:35:03;;;;;;;48.60;23.55;;;11.10;99.90;;;;;;5023079;28;20540;-76
2021/11/14 09:37:29;;;;;;;52.35;24.52;;;11.00;99.90;;;;;;5034078;28;20034;-77
2021/11/14 09:39:55;;;;;;;47.67;24.42;;;11.00;99.90;;;;;;5033721;28;20363;-77
2021/11/14 09:42:25;;;;;;;55.30;25.92;;;11.00;99.90;;;;;;5024776;28;20052;-76
2021/11/14 09:44:51;;;;;;;52.47;25.42;;;11.00;99.90;;;;;;5033933;28;20041;-77
2021/11/14 09:47:17;;;;;;;50.35;23.90;;;11.00;99.90;;;;;;5032239;28;20029;-77
2021/11/14 09:49:44;;;;;;;51.70;24.55;;;11.00;99.90;;;;;;5016782;28;20128;-76
2021/11/14 09:52:10;;;;;;;47.65;23.63;;;11.00;99.90;;;;;;5033701;28;20046;-77
2021/11/14 09:54:36;;;;;;;49.78;23.10;;;11.00;99.90;;;;;;5035244;28;20409;-76
2021/11/14 09:57:05;;;;;;;45.65;23.67;;;11.10;99.90;;;;;;5035873;28;20022;-76
2021/11/14 09:59:31;;;;;;;46.05;21.75;;;11.10;99.90;;;;;;5034528;28;20040;-78
2021/11/14 10:01:59;;;;;;;50.40;23.52;;;11.10;99.90;;;;;;5034392;28;20025;-75
2021/11/14 10:04:25;;;;;;;51.00;24.50;;;11.20;99.90;;;;;;5034153;28;20477;-76
2021/11/14 10:07:00;;;;;;;49.65;24.17;;;12.20;99.90;;;;;;5033643;28;20029;-77
2021/11/14 10:09:31;;;;;;;46.10;23.33;;;11.20;99.90;;;;;;5034410;28;20037;-76
2021/11/14 10:12:08;;;;;;;47.38;25.02;;;11.20;99.90;;;;;;5035229;28;20025;-76
2021/11/14 10:14:33;;;;;;;46.30;23.13;;;11.20;99.90;;;;;;5035652;28;20108;-77
2021/11/14 10:16:59;;;;;;;46.65;25.05;;;11.20;99.90;;;;;;5034796;28;20053;-77
2021/11/14 10:19:24;;;;;;;49.55;23.88;;;11.30;99.90;;;;;;5033401;28;20055;-77
2021/11/14 10:21:50;;;;;;;51.63;25.08;;;11.30;99.90;;;;;;5033734;28;20485;-77
2021/11/14 10:24:16;;;;;;;46.17;23.55;;;11.30;99.90;;;;;;5032923;28;20477;-76
2021/11/14 10:26:42;;;;;;;42.85;21.52;;;11.30;99.90;;;;;;5032845;28;20444;-76
2021/11/14 10:29:10;;;;;;;45.15;22.10;;;11.40;99.90;;;;;;5033313;28;20037;-78
2021/11/14 10:31:38;;;;;;;49.10;23.17;;;11.40;99.90;;;;;;5034294;28;20029;-80
2021/11/14 10:34:03;;;;;;;45.22;22.20;;;11.40;99.90;;;;;;5033911;28;20061;-79
2021/11/14 10:36:30;;;;;;;47.85;22.00;;;11.50;99.90;;;;;;5034064;28;20434;-78
2021/11/14 10:39:03;;;;;;;38.88;20.00;;;11.50;99.90;;;;;;5024142;28;20390;-78
2021/11/14 10:41:29;;;;;;;42.50;21.20;;;11.50;99.90;;;;;;5031996;28;20033;-79
2021/11/14 10:44:12;;;;;;;43.22;20.58;;;11.50;99.90;;;;;;5033930;28;20496;-79
2021/11/14 10:46:38;;;;;;;37.33;20.13;;;11.60;99.90;;;;;;5033734;28;20029;-77
2021/11/14 10:49:05;;;;;;;38.55;20.20;;;11.60;99.90;;;;;;5032158;28;20105;-76
2021/11/14 10:51:31;;;;;;;40.92;19.13;;;11.70;99.90;;;;;;5021082;28;20050;-78
2021/11/14 10:53:57;;;;;;;38.78;19.40;;;11.60;99.90;;;;;;5034422;28;20052;-76
2021/11/14 10:56:23;;;;;;;40.85;20.02;;;11.60;99.90;;;;;;5035122;28;20055;-78
2021/11/14 10:58:53;;;;;;;36.63;19.70;;;11.60;99.90;;;;;;5036131;28;20100;-76
2021/11/14 11:01:20;;;;;;;38.05;18.95;;;11.70;99.90;;;;;;5034566;28;20017;-77
2021/11/14 11:03:48;;;;;;;37.03;20.30;;;11.60;99.90;;;;;;5034777;28;20560;-77
2021/11/14 11:06:25;;;;;;;35.85;18.77;;;11.80;99.90;;;;;;5033629;28;20079;-76
2021/11/14 11:08:51;;;;;;;36.38;18.65;;;11.70;99.90;;;;;;5034079;28;20378;-77
2021/11/14 11:11:21;;;;;;;35.05;18.13;;;11.70;99.90;;;;;;5033700;28;20541;-78
2021/11/14 11:13:48;;;;;;;31.60;18.60;;;11.70;99.90;;;;;;5033883;28;20136;-75
2021/11/14 11:16:19;;;;;;;35.25;19.92;;;11.80;99.90;;;;;;5026972;28;20048;-78
2021/11/14 11:19:04;;;;;;;43.53;19.33;;;11.70;99.90;;;;;;5031335;28;20029;-78
2021/11/14 11:21:36;;;;;;;33.10;17.48;;;11.80;99.90;;;;;;5030000;28;20034;-78
2021/11/14 11:24:23;;;;;;;35.03;17.17;;;11.50;99.90;;;;;;5027458;28;20132;-79
2021/11/14 11:27:02;;;;;;;31.65;17.05;;;11.80;99.90;;;;;;5027929;28;20417;-80
2021/11/14 11:29:29;;;;;;;30.60;17.08;;;11.80;99.90;;;;;;5027137;28;20064;-80
2021/11/14 11:31:56;;;;;;;35.08;18.10;;;11.80;99.90;;;;;;5028931;28;20520;-80
2021/11/14 11:34:24;;;;;;;34.40;18.23;;;11.70;99.90;;;;;;5027076;28;20056;-81
2021/11/14 11:36:51;;;;;;;34.40;18.20;;;11.70;99.90;;;;;;5029159;28;20026;-81
2021/11/14 11:39:17;;;;;;;36.85;18.80;;;11.70;99.90;;;;;;5025476;28;20377;-80
2021/11/14 11:41:45;;;;;;;39.97;21.63;;;11.70;99.90;;;;;;5027464;28;20116;-79
2021/11/14 11:44:10;;;;;;;44.40;20.70;;;11.60;99.90;;;;;;5027375;28;20033;-80
2021/11/14 11:46:39;;;;;;;44.15;22.48;;;11.60;99.90;;;;;;5030119;28;20396;-78
2021/11/14 11:49:09;;;;;;;45.05;22.67;;;11.60;99.90;;;;;;5030760;28;20030;-79
2021/11/14 11:51:44;;;;;;;41.05;23.02;;;11.60;99.90;;;;;;5027689;28;20576;-79
2021/11/14 11:54:13;;;;;;;42.65;21.80;;;11.80;99.90;;;;;;5030614;28;20385;-80
2021/11/14 11:56:43;;;;;;;42.70;21.55;;;11.50;99.90;;;;;;5029737;28;20071;-80
2021/11/14 11:59:29;;;;;;;38.45;21.13;;;11.50;99.90;;;;;;5030258;28;20025;-79
2021/11/14 12:02:02;;;;;;;38.20;19.23;;;11.50;99.90;;;;;;5033454;28;20025;-80
2021/11/14 12:04:41;;;;;;;38.60;21.10;;;11.50;99.90;;;;;;5030667;28;20422;-80
2021/11/14 12:07:18;;;;;;;39.17;19.55;;;11.60;99.90;;;;;;5030109;28;20022;-79
2021/11/14 12:09:50;;;;;;;40.92;20.73;;;11.60;99.90;;;;;;5030123;28;20037;-79
2021/11/14 12:12:43;;;;;;;36.13;19.98;;;11.60;99.90;;;;;;5033320;28;20493;-78
2021/11/14 12:15:11;;;;;;;37.55;19.15;;;11.60;99.90;;;;;;5030305;28;20034;-82
2021/11/14 12:17:38;;;;;;;40.67;20.52;;;11.50;99.90;;;;;;5030125;28;20389;-78
2021/11/14 12:20:12;;;;;;;34.45;19.55;;;11.60;99.90;;;;;;5032044;28;20114;-79
2021/11/14 12:22:47;;;;;;;39.60;20.63;;;11.50;99.90;;;;;;5045100;28;20041;-80
2021/11/14 12:25:26;;;;;;;31.15;18.25;;;11.50;99.90;;;;;;5032911;28;20144;-79
2021/11/14 12:28:10;;;;;;;34.08;18.55;;;11.60;99.90;;;;;;5029826;28;20022;-78
2021/11/14 12:30:43;;;;;;;34.72;18.67;;;11.60;99.90;;;;;;5028206;28;20029;-80